createdAt,value
2018-12-08T00:00:54.371Z,7.40
2018-12-08T00:03:21.894Z,7.40
2018-12-08T00:05:49.979Z,7.30
2018-12-08T00:08:17.511Z,7.30
2018-12-08T00:10:44.989Z,7.30
2018-12-08T00:13:12.430Z,7.30
2018-12-08T00:15:39.872Z,7.30
2018-12-08T00:18:07.400Z,7.30
2018-12-08T00:20:34.900Z,7.30
2018-12-08T00:23:02.369Z,7.30
2018-12-08T00:25:29.825Z,7.30
2018-12-08T00:27:57.292Z,7.30
2018-12-08T00:30:36.797Z,7.30
2018-12-08T00:33:04.278Z,7.30
2018-12-08T00:35:31.717Z,7.30
2018-12-08T00:37:59.188Z,7.30
2018-12-08T00:40:26.660Z,7.30
2018-12-08T00:42:54.163Z,7.40
2018-12-08T00:45:21.728Z,7.40
2018-12-08T00:47:49.191Z,7.50
2018-12-08T00:50:16.656Z,7.50
2018-12-08T00:52:44.304Z,7.60
2018-12-08T00:57:45.872Z,7.70
2018-12-08T01:00:13.459Z,7.80
2018-12-08T01:02:40.939Z,7.70
2018-12-08T01:05:08.488Z,7.60
2018-12-08T01:07:35.935Z,7.60
2018-12-08T01:10:05.213Z,7.50
2018-12-08T01:12:32.687Z,7.40
2018-12-08T01:15:00.130Z,7.40
2018-12-08T01:17:27.674Z,7.30
2018-12-08T01:19:55.138Z,7.30
2018-12-08T01:22:22.591Z,7.30
2018-12-08T01:24:50.235Z,7.40
2018-12-08T01:27:17.749Z,7.30
2018-12-08T01:29:45.201Z,7.30
2018-12-08T01:32:12.662Z,7.40
2018-12-08T01:34:40.137Z,7.40
2018-12-08T01:37:07.745Z,7.40
2018-12-08T01:39:35.198Z,7.40
2018-12-08T01:42:02.626Z,7.40
2018-12-08T01:44:30.182Z,7.40
2018-12-08T01:46:57.619Z,7.30
2018-12-08T01:49:25.542Z,7.40
2018-12-08T01:51:52.992Z,7.40
2018-12-08T01:54:20.458Z,7.40
2018-12-08T01:56:47.888Z,7.40
2018-12-08T01:59:15.478Z,7.40
2018-12-08T02:01:42.934Z,7.30
2018-12-08T02:04:11.252Z,7.30
2018-12-08T02:06:38.690Z,7.30
2018-12-08T02:09:07.773Z,7.20
2018-12-08T02:11:37.957Z,7.20
2018-12-08T02:14:05.423Z,7.30
2018-12-08T02:16:32.881Z,7.30
2018-12-08T02:19:00.351Z,7.30
2018-12-08T02:21:27.793Z,7.20
2018-12-08T02:23:55.255Z,7.20
2018-12-08T02:26:23.014Z,7.20
2018-12-08T02:28:50.487Z,7.20
2018-12-08T02:31:17.936Z,7.20
2018-12-08T02:33:45.399Z,7.20
2018-12-08T02:36:13.069Z,7.10
2018-12-08T02:38:42.218Z,7.10
2018-12-08T02:41:09.917Z,7.20
2018-12-08T02:43:37.370Z,7.20
2018-12-08T02:46:04.927Z,7.20
2018-12-08T02:48:32.372Z,7.10
2018-12-08T02:50:59.805Z,7.10
2018-12-08T02:53:27.346Z,7.10
2018-12-08T02:55:54.796Z,7.20
2018-12-08T02:58:22.250Z,7.20
2018-12-08T03:00:49.784Z,7.30
2018-12-08T03:03:17.343Z,7.30
2018-12-08T03:05:44.805Z,7.30
2018-12-08T03:08:12.436Z,7.40
2018-12-08T03:10:39.895Z,7.50
2018-12-08T03:13:07.439Z,7.50
2018-12-08T03:15:34.941Z,7.60
2018-12-08T03:18:02.416Z,7.60
2018-12-08T03:20:29.856Z,7.70
2018-12-08T03:22:57.468Z,7.70
2018-12-08T03:25:24.927Z,7.70
2018-12-08T03:27:52.587Z,7.80
2018-12-08T03:30:20.160Z,7.80
2018-12-08T03:32:47.622Z,7.80
2018-12-08T03:35:15.075Z,7.80
2018-12-08T03:37:42.532Z,8.00
2018-12-08T03:40:09.964Z,7.90
2018-12-08T03:42:37.429Z,7.90
2018-12-08T03:45:05.110Z,7.90
2018-12-08T03:47:32.647Z,7.90
2018-12-08T03:50:00.102Z,7.90
2018-12-08T03:52:27.659Z,7.90
2018-12-08T03:54:55.087Z,7.90
2018-12-08T03:57:22.566Z,8.00
2018-12-08T03:59:49.999Z,8.00
2018-12-08T04:02:17.490Z,8.00
2018-12-08T04:04:45.049Z,8.00
2018-12-08T04:07:12.482Z,8.00
2018-12-08T04:09:39.952Z,8.10
2018-12-08T04:12:07.419Z,8.10
2018-12-08T04:14:34.893Z,8.20
2018-12-08T04:17:02.419Z,8.20
2018-12-08T04:19:29.896Z,8.20
2018-12-08T04:21:57.351Z,8.30
2018-12-08T04:24:25.576Z,8.20
2018-12-08T04:26:53.191Z,8.20
2018-12-08T04:29:20.632Z,8.20
2018-12-08T04:31:48.105Z,8.10
2018-12-08T04:34:15.553Z,8.20
2018-12-08T04:36:43.612Z,8.30
2018-12-08T04:39:11.059Z,8.20
2018-12-08T04:41:38.548Z,8.30
2018-12-08T04:44:06.083Z,8.20
2018-12-08T04:46:33.523Z,8.10
2018-12-08T04:49:01.007Z,8.10
2018-12-08T04:51:28.445Z,8.00
2018-12-08T04:53:56.330Z,8.00
2018-12-08T04:56:23.767Z,8.00
2018-12-08T04:58:51.211Z,8.00
2018-12-08T05:01:18.663Z,8.00
2018-12-08T05:03:46.107Z,8.00
2018-12-08T05:06:13.560Z,8.00
2018-12-08T05:08:41.061Z,8.00
2018-12-08T05:11:08.677Z,7.90
2018-12-08T05:13:36.258Z,8.00
2018-12-08T05:16:03.793Z,8.00
2018-12-08T05:18:31.223Z,8.00
2018-12-08T05:20:58.667Z,8.10
2018-12-08T05:23:27.154Z,8.10
2018-12-08T05:25:54.600Z,8.00
2018-12-08T05:28:22.127Z,7.90
2018-12-08T05:30:49.719Z,8.00
2018-12-08T05:33:17.601Z,8.10
2018-12-08T05:35:45.095Z,8.10
2018-12-08T05:38:12.615Z,8.10
2018-12-08T05:40:40.044Z,8.10
2018-12-08T05:43:07.495Z,8.10
2018-12-08T05:45:34.956Z,8.20
2018-12-08T05:48:02.466Z,8.20
2018-12-08T05:50:29.880Z,8.20
2018-12-08T05:52:57.652Z,8.20
2018-12-08T05:55:25.093Z,8.20
2018-12-08T05:57:52.600Z,8.20
2018-12-08T06:00:20.384Z,8.20
2018-12-08T06:02:47.862Z,8.30
2018-12-08T06:05:15.328Z,8.30
2018-12-08T06:07:42.898Z,8.30
2018-12-08T06:10:10.348Z,8.20
2018-12-08T06:12:37.784Z,8.20
2018-12-08T06:15:05.564Z,8.30
2018-12-08T06:17:33.014Z,8.10
2018-12-08T06:20:00.578Z,8.10
2018-12-08T06:22:28.008Z,8.10
2018-12-08T06:24:55.490Z,8.10
2018-12-08T06:27:23.858Z,8.10
2018-12-08T06:29:51.316Z,8.00
2018-12-08T06:32:18.755Z,8.10
2018-12-08T06:34:46.242Z,8.00
2018-12-08T06:37:27.153Z,8.00
2018-12-08T06:39:54.746Z,8.00
2018-12-08T06:42:22.320Z,8.00
2018-12-08T06:44:49.754Z,8.00
2018-12-08T06:47:17.216Z,8.10
2018-12-08T06:49:44.734Z,8.00
2018-12-08T06:52:12.250Z,7.90
2018-12-08T06:54:39.728Z,7.80
2018-12-08T06:57:07.186Z,7.70
2018-12-08T06:59:34.677Z,7.60
2018-12-08T07:02:02.130Z,7.80
2018-12-08T07:04:30.232Z,7.70
2018-12-08T07:06:57.807Z,7.70
2018-12-08T07:09:25.293Z,7.70
2018-12-08T07:11:52.880Z,7.90
2018-12-08T07:14:20.683Z,8.10
2018-12-08T07:16:48.656Z,8.40
2018-12-08T07:19:16.462Z,8.30
2018-12-08T07:21:44.172Z,7.90
2018-12-08T07:24:11.616Z,7.70
2018-12-08T07:26:45.141Z,7.60
2018-12-08T07:29:12.600Z,7.60
2018-12-08T07:31:40.084Z,7.60
2018-12-08T07:34:07.542Z,8.40
2018-12-08T07:36:35.084Z,8.60
2018-12-08T07:39:02.588Z,8.70
2018-12-08T07:41:30.920Z,8.20
2018-12-08T07:43:58.456Z,8.00
2018-12-08T07:46:25.918Z,8.10
2018-12-08T07:48:53.360Z,8.10
2018-12-08T07:51:20.849Z,8.00
2018-12-08T07:53:48.272Z,8.10
2018-12-08T07:56:15.843Z,7.90
2018-12-08T07:58:43.297Z,7.90
2018-12-08T08:01:10.752Z,7.90
2018-12-08T08:03:38.215Z,7.90
2018-12-08T08:06:05.886Z,8.00
2018-12-08T08:08:33.437Z,7.90
2018-12-08T08:11:00.867Z,7.80
2018-12-08T08:13:28.327Z,7.80
2018-12-08T08:15:55.783Z,7.70
2018-12-08T08:18:23.267Z,7.70
2018-12-08T08:20:50.769Z,7.70
2018-12-08T08:23:18.243Z,7.70
2018-12-08T08:25:45.685Z,7.70
2018-12-08T08:28:13.163Z,7.70
2018-12-08T08:30:40.623Z,7.80
2018-12-08T08:33:09.013Z,7.80
2018-12-08T08:35:36.484Z,7.80
2018-12-08T08:38:03.922Z,7.90
2018-12-08T08:40:31.489Z,7.80
2018-12-08T08:42:58.945Z,7.90
2018-12-08T08:45:26.406Z,8.00
2018-12-08T08:47:53.870Z,8.20
2018-12-08T08:50:21.306Z,8.40
2018-12-08T08:52:48.739Z,8.60
2018-12-08T08:55:16.222Z,8.80
2018-12-08T08:57:43.712Z,8.80
2018-12-08T09:00:11.358Z,8.80
2018-12-08T09:02:38.806Z,8.80
2018-12-08T09:05:06.675Z,8.70
2018-12-08T09:07:34.214Z,8.70
2018-12-08T09:10:01.670Z,8.80
2018-12-08T09:12:39.011Z,8.70
2018-12-08T09:15:07.862Z,8.70
2018-12-08T09:17:35.318Z,8.70
2018-12-08T09:20:04.306Z,8.80
2018-12-08T09:22:32.156Z,8.80
2018-12-08T09:24:59.582Z,8.90
2018-12-08T09:27:27.050Z,8.90
2018-12-08T09:29:54.531Z,9.00
2018-12-08T09:32:21.996Z,9.10
2018-12-08T09:34:49.479Z,9.20
2018-12-08T09:37:17.013Z,9.10
2018-12-08T09:39:44.517Z,8.90
2018-12-08T09:42:11.975Z,8.90
2018-12-08T09:44:39.412Z,8.80
2018-12-08T09:47:06.885Z,8.80
2018-12-08T09:49:34.369Z,8.90
2018-12-08T09:52:01.819Z,8.90
2018-12-08T09:54:29.256Z,9.00
2018-12-08T09:56:56.732Z,9.10
2018-12-08T09:59:24.195Z,9.10
2018-12-08T10:01:51.750Z,9.20
2018-12-08T10:04:19.227Z,9.20
2018-12-08T10:06:46.719Z,9.20
2018-12-08T10:09:14.149Z,9.30
2018-12-08T10:11:41.591Z,9.40
2018-12-08T10:14:09.088Z,9.40
2018-12-08T10:16:41.007Z,9.40
2018-12-08T10:21:40.936Z,9.50
2018-12-08T10:24:09.360Z,9.60
2018-12-08T10:26:40.733Z,9.60
2018-12-08T10:29:08.208Z,9.70
2018-12-08T10:31:36.109Z,9.60
2018-12-08T10:34:10.098Z,9.70
2018-12-08T10:36:42.441Z,9.70
2018-12-08T10:39:09.892Z,9.70
2018-12-08T10:41:38.570Z,9.70
2018-12-08T10:44:06.010Z,9.80
2018-12-08T10:46:33.560Z,9.90
2018-12-08T10:49:01.125Z,10.00
2018-12-08T10:51:28.671Z,10.20
2018-12-08T10:53:56.138Z,10.10
2018-12-08T10:56:23.914Z,10.10
2018-12-08T10:58:51.364Z,10.10
2018-12-08T11:01:20.816Z,10.20
2018-12-08T11:03:48.381Z,10.10
2018-12-08T11:06:17.001Z,10.20
2018-12-08T11:08:44.774Z,10.20
2018-12-08T11:11:12.289Z,10.20
2018-12-08T11:13:39.743Z,10.30
2018-12-08T11:16:07.376Z,10.20
2018-12-08T11:18:34.864Z,10.20
2018-12-08T11:21:02.347Z,10.10
2018-12-08T11:23:29.884Z,10.20
2018-12-08T11:25:57.378Z,10.20
2018-12-08T11:30:58.816Z,10.10
2018-12-08T11:33:26.282Z,10.10
2018-12-08T11:35:53.732Z,10.00
2018-12-08T11:38:21.275Z,10.00
2018-12-08T11:40:48.720Z,10.00
2018-12-08T11:43:16.309Z,10.00
2018-12-08T11:45:43.833Z,10.00
2018-12-08T11:48:11.403Z,10.00
2018-12-08T11:50:41.760Z,10.00
2018-12-08T11:53:13.541Z,9.90
2018-12-08T11:55:45.836Z,10.00
2018-12-08T11:58:13.398Z,10.00
2018-12-08T12:00:41.922Z,9.90
2018-12-08T12:03:14.537Z,9.90
2018-12-08T12:05:44.453Z,10.00
2018-12-08T12:08:12.690Z,10.00
2018-12-08T12:10:41.982Z,9.90
2018-12-08T12:13:15.834Z,10.00
2018-12-08T12:15:43.332Z,10.00
2018-12-08T12:18:10.784Z,10.10
2018-12-08T12:20:38.268Z,10.30
2018-12-08T12:23:05.746Z,10.10
2018-12-08T12:25:33.287Z,10.10
2018-12-08T12:28:00.924Z,10.30
2018-12-08T12:30:28.605Z,10.40
2018-12-08T12:32:56.154Z,10.60
2018-12-08T12:35:23.689Z,10.50
2018-12-08T12:37:51.165Z,10.10
2018-12-08T12:40:18.766Z,10.00
2018-12-08T12:42:46.209Z,9.80
2018-12-08T12:45:13.712Z,9.90
2018-12-08T12:47:41.156Z,9.90
2018-12-08T12:50:08.725Z,9.80
2018-12-08T12:52:36.189Z,9.80
2018-12-08T12:55:03.792Z,9.70
2018-12-08T12:57:31.248Z,9.70
2018-12-08T12:59:58.755Z,9.80
2018-12-08T13:02:26.340Z,9.80
2018-12-08T13:04:53.798Z,9.90
2018-12-08T13:07:21.245Z,10.00
2018-12-08T13:09:48.716Z,10.00
2018-12-08T13:12:16.339Z,10.10
2018-12-08T13:14:43.823Z,10.20
2018-12-08T13:17:11.285Z,10.10
2018-12-08T13:19:38.789Z,10.20
2018-12-08T13:22:06.243Z,10.20
2018-12-08T13:24:34.301Z,10.20
2018-12-08T13:27:01.781Z,10.30
2018-12-08T13:29:29.304Z,10.30
2018-12-08T13:31:56.833Z,10.40
2018-12-08T13:34:25.422Z,10.40
2018-12-08T13:36:53.042Z,10.40
2018-12-08T13:39:20.576Z,10.40
2018-12-08T13:41:48.130Z,10.50
2018-12-08T13:44:27.542Z,10.50
2018-12-08T13:46:55.096Z,10.50
2018-12-08T13:49:22.573Z,10.50
2018-12-08T13:51:50.046Z,10.50
2018-12-08T13:54:45.155Z,10.50
2018-12-08T13:57:12.778Z,10.60
2018-12-08T13:59:40.208Z,10.60
2018-12-08T14:02:08.118Z,10.60
2018-12-08T14:04:35.759Z,10.50
2018-12-08T14:07:03.284Z,10.50
2018-12-08T14:09:30.786Z,10.60
2018-12-08T14:11:58.231Z,10.60
2018-12-08T14:14:25.703Z,10.60
2018-12-08T14:16:53.220Z,10.60
2018-12-08T14:19:20.891Z,10.60
2018-12-08T14:21:48.349Z,10.50
2018-12-08T14:24:15.790Z,10.50
2018-12-08T14:26:43.436Z,10.60
2018-12-08T14:29:10.997Z,10.60
2018-12-08T14:31:38.755Z,10.60
2018-12-08T14:34:06.275Z,10.60
2018-12-08T14:36:33.727Z,10.60
2018-12-08T14:39:01.863Z,10.50
2018-12-08T14:41:29.330Z,10.60
2018-12-08T14:43:56.804Z,10.60
2018-12-08T14:46:24.281Z,10.60
2018-12-08T14:48:51.754Z,10.60
2018-12-08T14:51:19.198Z,10.60
2018-12-08T14:53:46.727Z,10.60
2018-12-08T14:56:15.198Z,10.60
2018-12-08T14:58:42.679Z,10.60
2018-12-08T15:01:10.243Z,10.60
2018-12-08T15:03:37.699Z,10.60
2018-12-08T15:06:05.235Z,10.60
2018-12-08T15:08:32.709Z,10.60
2018-12-08T15:11:00.160Z,10.60
2018-12-08T15:13:27.819Z,10.50
2018-12-08T15:15:55.260Z,10.50
2018-12-08T15:18:22.820Z,10.50
2018-12-08T15:20:50.256Z,10.50
2018-12-08T15:23:17.833Z,10.50
2018-12-08T15:25:45.844Z,10.60
2018-12-08T15:28:13.344Z,10.60
2018-12-08T15:30:40.808Z,10.60
2018-12-08T15:33:08.304Z,10.50
2018-12-08T15:35:35.754Z,10.50
2018-12-08T15:38:03.253Z,10.50
2018-12-08T15:40:30.819Z,10.50
2018-12-08T15:42:58.265Z,10.50
2018-12-08T15:45:25.867Z,10.50
2018-12-08T15:47:53.357Z,10.50
2018-12-08T15:50:20.888Z,10.50
2018-12-08T15:52:48.591Z,10.40
2018-12-08T15:55:16.988Z,10.40
2018-12-08T15:57:45.922Z,10.50
2018-12-08T16:00:13.717Z,10.50
2018-12-08T16:02:41.231Z,10.50
2018-12-08T16:05:09.973Z,10.50
2018-12-08T16:07:37.582Z,10.50
2018-12-08T16:10:07.447Z,10.50
2018-12-08T16:12:34.903Z,10.60
2018-12-08T16:15:02.560Z,10.60
2018-12-08T16:17:30.025Z,10.60
2018-12-08T16:19:57.534Z,10.70
2018-12-08T16:22:25.003Z,10.60
2018-12-08T16:24:52.483Z,10.70
2018-12-08T16:27:19.959Z,10.60
2018-12-08T16:29:47.459Z,10.60
2018-12-08T16:32:14.967Z,10.70
2018-12-08T16:34:42.413Z,10.60
2018-12-08T16:37:09.934Z,10.70
2018-12-08T16:39:37.432Z,10.80
2018-12-08T16:42:05.007Z,10.80
2018-12-08T16:44:32.485Z,10.80
2018-12-08T16:47:00.538Z,10.70
2018-12-08T16:49:28.019Z,10.80
2018-12-08T16:51:55.508Z,10.90
2018-12-08T16:54:23.052Z,10.80
2018-12-08T16:56:50.512Z,10.80
2018-12-08T16:59:18.052Z,10.80
2018-12-08T17:01:51.936Z,10.80
2018-12-08T17:04:20.952Z,10.80
2018-12-08T17:06:48.849Z,10.80
2018-12-08T17:09:16.334Z,10.80
2018-12-08T17:11:44.008Z,10.70
2018-12-08T17:14:11.962Z,10.60
2018-12-08T17:16:39.508Z,10.60
2018-12-08T17:19:06.986Z,10.50
2018-12-08T17:21:34.464Z,10.50
2018-12-08T17:24:02.242Z,10.40
2018-12-08T17:26:29.872Z,10.30
2018-12-08T17:28:57.437Z,10.30
2018-12-08T17:31:25.054Z,10.30
2018-12-08T17:33:52.472Z,10.30
2018-12-08T17:36:20.081Z,10.30
2018-12-08T17:38:47.603Z,10.30
2018-12-08T17:41:15.192Z,10.20
2018-12-08T17:43:43.686Z,10.20
2018-12-08T17:46:11.276Z,10.20
2018-12-08T17:48:38.900Z,10.20
2018-12-08T17:51:06.341Z,10.20
2018-12-08T17:53:33.790Z,10.20
2018-12-08T17:56:01.264Z,10.20
2018-12-08T17:58:28.741Z,10.20
2018-12-08T18:00:56.180Z,10.30
2018-12-08T18:03:23.748Z,10.20
2018-12-08T18:05:51.192Z,10.30
2018-12-08T18:08:19.345Z,10.30
2018-12-08T18:10:46.796Z,10.30
2018-12-08T18:13:14.300Z,10.30
2018-12-08T18:15:41.729Z,10.30
2018-12-08T18:18:09.182Z,10.30
2018-12-08T18:20:36.659Z,10.30
2018-12-08T18:23:04.118Z,10.30
2018-12-08T18:25:31.628Z,10.40
2018-12-08T18:27:59.296Z,10.30
2018-12-08T18:30:26.724Z,10.30
2018-12-08T18:32:54.219Z,10.30
2018-12-08T18:35:21.675Z,10.10
2018-12-08T18:37:50.755Z,10.10
2018-12-08T18:40:18.202Z,10.00
2018-12-08T18:42:45.714Z,9.90
2018-12-08T18:45:13.216Z,9.80
2018-12-08T18:47:40.680Z,9.70
2018-12-08T18:50:08.566Z,9.70
2018-12-08T18:52:36.012Z,9.60
2018-12-08T18:55:03.485Z,9.50
2018-12-08T18:57:30.938Z,9.40
2018-12-08T18:59:58.405Z,9.30
2018-12-08T19:02:25.873Z,9.30
2018-12-08T19:04:53.336Z,9.30
2018-12-08T19:07:20.797Z,9.30
2018-12-08T19:09:48.252Z,9.40
2018-12-08T19:12:15.763Z,9.40
2018-12-08T19:14:43.268Z,9.40
2018-12-08T19:17:10.794Z,9.40
2018-12-08T19:19:38.284Z,9.40
2018-12-08T19:22:05.724Z,9.40
2018-12-08T19:24:33.201Z,9.40
2018-12-08T19:27:00.660Z,9.40
2018-12-08T19:29:28.118Z,9.50
2018-12-08T19:31:56.124Z,9.50
2018-12-08T19:34:23.672Z,9.60
2018-12-08T19:36:51.250Z,9.60
2018-12-08T19:39:18.721Z,9.60
2018-12-08T19:41:46.182Z,9.70
2018-12-08T19:46:47.211Z,9.70
2018-12-08T19:49:14.749Z,9.80
2018-12-08T19:51:42.280Z,9.70
2018-12-08T19:54:09.766Z,9.70
2018-12-08T19:56:37.336Z,9.70
2018-12-08T19:59:04.792Z,9.70
2018-12-08T20:01:32.262Z,9.80
2018-12-08T20:03:59.691Z,9.80
2018-12-08T20:06:27.259Z,9.80
2018-12-08T20:08:54.783Z,9.90
2018-12-08T20:11:22.273Z,9.90
2018-12-08T20:13:49.889Z,9.80
2018-12-08T20:16:17.344Z,9.90
2018-12-08T20:18:44.905Z,9.90
2018-12-08T20:21:12.409Z,9.90
2018-12-08T20:23:39.867Z,9.80
2018-12-08T20:26:07.344Z,9.80
2018-12-08T20:28:34.816Z,9.90
2018-12-08T20:31:02.300Z,9.80
2018-12-08T20:33:29.732Z,9.80
2018-12-08T20:35:57.254Z,9.80
2018-12-08T20:38:25.161Z,9.80
2018-12-08T20:40:52.835Z,9.80
2018-12-08T20:43:20.284Z,9.80
2018-12-08T20:45:47.754Z,9.80
2018-12-08T20:48:15.250Z,9.80
2018-12-08T20:50:42.714Z,9.90
2018-12-08T20:53:10.190Z,10.00
2018-12-08T20:55:37.644Z,10.10
2018-12-08T20:58:06.717Z,10.20
2018-12-08T21:00:34.187Z,10.20
2018-12-08T21:03:01.773Z,10.30
2018-12-08T21:05:29.366Z,10.40
2018-12-08T21:07:56.850Z,10.50
2018-12-08T21:10:24.325Z,10.50
2018-12-08T21:12:52.705Z,10.60
2018-12-08T21:15:20.203Z,10.60
2018-12-08T21:17:47.700Z,10.60
2018-12-08T21:20:18.553Z,10.60
2018-12-08T21:22:46.020Z,10.60
2018-12-08T21:25:13.545Z,10.60
2018-12-08T21:27:41.085Z,10.70
2018-12-08T21:30:08.687Z,10.60
2018-12-08T21:32:36.135Z,10.60
2018-12-08T21:35:03.728Z,10.60
2018-12-08T21:37:31.706Z,10.50
2018-12-08T21:39:59.225Z,10.40
2018-12-08T21:42:26.643Z,10.50
2018-12-08T21:44:54.140Z,10.50
2018-12-08T21:47:21.605Z,10.50
2018-12-08T21:49:49.091Z,10.40
2018-12-08T21:52:16.592Z,10.30
2018-12-08T21:54:44.098Z,10.30
2018-12-08T21:57:11.628Z,10.30
2018-12-08T21:59:39.148Z,10.70
2018-12-08T22:02:06.763Z,10.90
2018-12-08T22:04:34.374Z,10.90
2018-12-08T22:07:01.808Z,11.00
2018-12-08T22:09:29.361Z,11.00
2018-12-08T22:11:56.823Z,11.20
2018-12-08T22:14:24.369Z,11.30
2018-12-08T22:16:51.807Z,11.10
2018-12-08T22:19:19.333Z,11.30
2018-12-08T22:21:46.885Z,11.00
2018-12-08T22:24:14.347Z,11.00
2018-12-08T22:26:41.889Z,10.90
2018-12-08T22:29:09.355Z,10.80
2018-12-08T22:31:36.885Z,10.80
2018-12-08T22:34:04.374Z,10.80
2018-12-08T22:36:31.827Z,10.80
2018-12-08T22:38:59.291Z,10.80
2018-12-08T22:41:26.740Z,10.80
2018-12-08T22:43:54.581Z,10.80
2018-12-08T22:46:22.153Z,10.80
2018-12-08T22:48:49.637Z,10.80
2018-12-08T22:51:17.116Z,10.80
2018-12-08T22:53:44.607Z,10.80
2018-12-08T22:56:12.098Z,10.80
2018-12-08T22:58:39.599Z,10.80
2018-12-08T23:01:07.161Z,10.80
2018-12-08T23:03:34.672Z,10.70
2018-12-08T23:06:02.176Z,10.70
2018-12-08T23:08:29.672Z,10.70
2018-12-08T23:10:57.118Z,10.70
2018-12-08T23:13:25.137Z,10.70
2018-12-08T23:15:52.588Z,10.70
2018-12-08T23:18:20.137Z,10.70
2018-12-08T23:20:47.798Z,10.60
2018-12-08T23:23:15.352Z,10.70
2018-12-08T23:25:42.924Z,10.70
2018-12-08T23:28:10.448Z,10.70
2018-12-08T23:30:38.177Z,10.80
2018-12-08T23:33:05.676Z,10.70
2018-12-08T23:35:33.399Z,10.70
2018-12-08T23:38:00.844Z,10.80
2018-12-08T23:40:28.415Z,10.80
2018-12-08T23:42:56.036Z,10.90
2018-12-08T23:45:23.622Z,10.90
2018-12-08T23:47:51.064Z,10.80
2018-12-08T23:50:18.582Z,10.70
2018-12-08T23:52:46.064Z,10.60
2018-12-08T23:55:13.692Z,10.60
2018-12-08T23:57:41.152Z,10.60
